Flight Track Log - Related Links

Times and Time Zones

All times are in EDT time to prevent confusion due to time zone crossing. See the EJA929 flight status page for this flight to view local times or setup timezone preferences in your user account.

Time Position Orientation Groundspeed Altitude Reporting Facility
EDT Latitude Longitude Course Direction KTS MPH feet Rate Location/Type
Wed 05:19:09 PM 33.4333 -112.0333 270° West 156 180 1,700  Level Phoenix TRACON
Wed 05:19:33 PM 33.4333 -112.0500 270° West 183 211 2,600 2,786 Climbing Phoenix TRACON
Wed 05:20:33 PM 33.4333 -112.1333 270° West 245 282 5,600 3,120 Climbing Phoenix TRACON
Wed 05:21:13 PM 33.4500 -112.1817 292° West 265 305 7,800 3,471 Climbing Albuquerque Center
Wed 05:22:15 PM 33.5186 -112.1811 360° North 285 328 11,500 3,000 Climbing Albuquerque Center
Wed 05:23:17 PM 33.5928 -112.1175 36° Northeast 332 382 14,000 1,951 Climbing Albuquerque Center
Wed 05:24:18 PM 33.6736 -112.0492 35° Northeast 354 407 15,500 1,707 Climbing Albuquerque Center
Wed 05:25:20 PM 33.7558 -111.9789 35° Northeast 364 419 17,500 1,805 Climbing Albuquerque Center
Wed 05:26:21 PM 33.8511 -111.8983 35° Northeast 365 420 19,200 1,659 Climbing Albuquerque Center
Wed 05:27:23 PM 33.9456 -111.8178 35° Northeast 383 441 20,900 1,756 Climbing Albuquerque Center
Wed 05:28:24 PM 34.0342 -111.7417 35° Northeast 391 450 22,800 1,659 Climbing Albuquerque Center
Wed 05:29:26 PM 34.1358 -111.6919 22° Northeast 397 457 24,300 1,355 Climbing Albuquerque Center
Wed 05:30:28 PM 34.2250 -111.6383 26° Northeast 414 476 25,600 1,561 Climbing Albuquerque Center
Wed 05:31:29 PM 34.3375 -111.5278 39° Northeast 432 497 27,500 1,659 Climbing Albuquerque Center
Wed 05:32:31 PM 34.4328 -111.4325 40° Northeast 439 505 29,000 1,500 Climbing Albuquerque Center
Wed 05:33:33 PM 34.5314 -111.3333 40° Northeast 453 521 30,600 1,463 Climbing Albuquerque Center
Wed 05:34:34 PM 34.6319 -111.2317 40° Northeast 465 535 32,000 1,415 Climbing Albuquerque Center
Wed 05:35:36 PM 34.7347 -111.1272 40° Northeast 477 549 33,500 1,220 Climbing Albuquerque Center
Wed 05:36:37 PM 34.8408 -111.0200 40° Northeast 490 564 34,500 1,122 Climbing Albuquerque Center
Wed 05:37:39 PM 34.9500 -110.9106 39° Northeast 505 581 35,800 1,694 Climbing Albuquerque Center
Wed 05:38:41 PM 35.0758 -110.7658 43° Northeast 509 586 38,000 1,756 Climbing Albuquerque Center
Wed 05:39:42 PM 35.1639 -110.6406 49° Northeast 507 583 39,400 1,366 Climbing Albuquerque Center
Wed 05:40:44 PM 35.2528 -110.5178 48° Northeast 505 581 40,800 780 Climbing Albuquerque Center
Wed 05:41:45 PM 35.3586 -110.3717 48° Northeast 511 588 41,000 98 Climbing Albuquerque Center
Wed 05:42:47 PM 35.4542 -110.2389 49° Northeast 533 613 41,000  Level Albuquerque Center
Wed 05:43:48 PM 35.5661 -110.0833 48° Northeast 543 625 41,000  Level Albuquerque Center
Wed 05:44:50 PM 35.6628 -109.9489 48° Northeast 547 629 41,000  Level Albuquerque Center
Wed 05:45:51 PM 35.7589 -109.8133 49° Northeast 547 629 41,000  Level Albuquerque Center
Wed 05:46:53 PM 35.8719 -109.6542 49° Northeast 550 633 41,000  Level Albuquerque Center
Wed 05:47:54 PM 35.9678 -109.5178 49° Northeast 549 632 41,000  Level Albuquerque Center
Wed 05:48:56 PM 36.0789 -109.3600 49° Northeast 544 626 41,000  Level Albuquerque Center
Wed 05:50:05 PM 36.1897 -109.2025 49° Northeast 542 624 41,000  Level Denver Center
Wed 05:51:19 PM 36.2858 -109.0672 49° Northeast 539 620 41,000  Level Denver Center
Wed 05:52:22 PM 36.4119 -108.8858 49° Northeast 537 618 41,000  Level Denver Center
Wed 05:53:24 PM 36.5047 -108.7503 50° Northeast 535 616 41,000  Level Denver Center
Wed 05:54:26 PM 36.6131 -108.5931 49° Northeast 533 613 41,000  Level Denver Center
Wed 05:55:28 PM 36.7042 -108.4586 50° Northeast 530 610 41,000  Level Denver Center
Wed 05:56:30 PM 36.8117 -108.3033 49° Northeast 528 608 41,000  Level Denver Center
Wed 05:57:32 PM 36.9019 -108.1675 50° Northeast 531 611 41,000  Level Denver Center
Wed 05:58:34 PM 37.0092 -108.0114 49° Northeast 531 611 41,000  Level Denver Center
Wed 05:59:36 PM 37.0992 -107.8789 50° Northeast 523 602 41,000  Level Denver Center
Wed 06:00:38 PM 37.1886 -107.7456 50° Northeast 520 598 41,000  Level Denver Center
Wed 06:01:40 PM 37.2919 -107.5881 50° Northeast 522 601 41,000  Level Denver Center
Wed 06:02:43 PM 37.3797 -107.4564 50° Northeast 515 593 41,000  Level Denver Center
Wed 06:03:45 PM 37.4844 -107.3006 50° Northeast 521 600 41,000  Level Denver Center
Wed 06:04:47 PM 37.5733 -107.1625 51° Northeast 527 606 41,000  Level Denver Center
Wed 06:05:49 PM 37.6792 -107.0047 50° Northeast 528 608 41,000  Level Denver Center
Wed 06:06:51 PM 37.7678 -106.8667 51° Northeast 529 609 41,000  Level Denver Center
Wed 06:07:53 PM 37.8603 -106.7242 51° Northeast 528 608 41,000  Level Denver Center
Wed 06:08:55 PM 37.9639 -106.5647 50° Northeast 524 603 41,000  Level Denver Center
Wed 06:09:57 PM 38.0642 -106.4097 51° Northeast 528 608 41,000  Level Denver Center
Wed 06:10:59 PM 38.1469 -106.2808 51° Northeast 528 608 41,000  Level Denver Center
Wed 06:12:01 PM 38.2553 -106.1094 51° Northeast 526 605 41,000  Level Denver Center
Wed 06:13:03 PM 38.3428 -105.9717 51° Northeast 522 601 41,000  Level Denver Center
Wed 06:14:05 PM 38.4464 -105.8092 51° Northeast 525 604 41,000  Level Denver Center
Wed 06:15:07 PM 38.5411 -105.6592 51° Northeast 528 608 41,000  Level Denver Center
Wed 06:16:09 PM 38.6319 -105.5131 51° Northeast 527 606 41,000  Level Denver Center
Wed 06:17:11 PM 38.7239 -105.3672 51° Northeast 528 608 41,000  Level Denver Center
Wed 06:18:13 PM 38.8150 -105.2192 52° Northeast 531 611 41,000  Level Denver Center
Wed 06:19:15 PM 38.9064 -105.0703 52° Northeast 534 615 41,000  Level Denver Center
Wed 06:20:17 PM 38.9989 -104.9228 51° Northeast 533 613 41,000  Level Denver Center
Wed 06:21:19 PM 39.1083 -104.7456 51° Northeast 531 611 41,000  Level Denver Center
Wed 06:22:21 PM 39.1964 -104.5994 52° Northeast 523 602 41,000  Level Denver Center
Wed 06:23:23 PM 39.2833 -104.4544 52° Northeast 517 595 41,000  Level Denver Center
Wed 06:24:25 PM 39.3714 -104.3097 52° Northeast 520 598 41,000  Level Denver Center
Wed 06:25:27 PM 39.4764 -104.1344 52° Northeast 519 597 41,000  Level Denver Center
Wed 06:26:30 PM 39.5633 -103.9875 52° Northeast 518 596 41,000  Level Denver Center
Wed 06:27:32 PM 39.6506 -103.8383 53° Northeast 521 600 41,000  Level Denver Center
Wed 06:28:34 PM 39.7378 -103.6936 52° Northeast 511 588 41,000  Level Denver Center
Wed 06:29:36 PM 39.8256 -103.5442 53° Northeast 518 596 41,000  Level Denver Center
Wed 06:30:38 PM 39.9142 -103.3956 52° Northeast 523 602 41,000  Level Denver Center
Wed 06:31:40 PM 40.0189 -103.2147 53° Northeast 523 602 41,000  Level Denver Center
Wed 06:32:42 PM 40.1061 -103.0631 53° Northeast 524 603 41,000  Level Denver Center
Wed 06:33:44 PM 40.1933 -102.9122 53° Northeast 523 602 41,000  Level Denver Center
Wed 06:34:46 PM 40.2817 -102.7603 53° Northeast 525 604 41,000  Level Denver Center
Wed 06:35:48 PM 40.3742 -102.5969 53° Northeast 525 604 41,000  Level Denver Center
Wed 06:36:50 PM 40.4736 -102.4247 53° Northeast 528 608 41,000  Level Denver Center
Wed 06:37:52 PM 40.5578 -102.2756 53° Northeast 531 611 41,000  Level Denver Center
Wed 06:38:54 PM 40.6550 -102.1014 54° Northeast 528 608 41,000  Level Denver Center
Wed 06:39:56 PM 40.7392 -101.9514 53° Northeast 531 611 41,000  Level Denver Center
Wed 06:40:58 PM 40.8233 -101.8006 54° Northeast 531 611 41,000  Level Denver Center
Wed 06:42:00 PM 40.9222 -101.6236 53° Northeast 536 617 41,000  Level Denver Center
Wed 06:43:02 PM 41.0061 -101.4722 54° Northeast 532 612 41,000  Level Denver Center
Wed 06:44:04 PM 41.1047 -101.2925 54° Northeast 535 616 41,000  Level Denver Center
Wed 06:45:06 PM 41.1886 -101.1381 54° Northeast 535 616 41,000  Level Denver Center
Wed 06:46:08 PM 41.2878 -100.9564 54° Northeast 539 620 41,000  Level Denver Center
Wed 06:47:10 PM 41.3714 -100.8000 54° Northeast 539 620 41,000  Level Denver Center
Wed 06:48:12 PM 41.4558 -100.6431 54° Northeast 541 623 41,000  Level Denver Center
Wed 06:49:14 PM 41.5536 -100.4617 54° Northeast 538 619 41,000  Level Denver Center
Wed 06:50:16 PM 41.6361 -100.3053 55° Northeast 537 618 41,000  Level Denver Center
Wed 06:51:18 PM 41.7314 -100.1225 55° Northeast 536 617 41,000  Level Denver Center
Wed 06:52:21 PM 41.8144 -99.9667 54° Northeast 537 618 41,000  Level Denver Center
Wed 06:53:23 PM 41.9114 -99.7811 55° Northeast 542 624 41,000  Level Denver Center
Wed 06:54:19 PM 41.9950 -99.6189 55° Northeast 542 624 41,000  Level Minneapolis Center
Wed 06:55:21 PM 42.0817 -99.4514 55° Northeast 542 624 41,000  Level Minneapolis Center
Wed 06:56:23 PM 42.1678 -99.2842 55° Northeast 541 623 41,000  Level Minneapolis Center
Wed 06:56:41 PM 42.1850 -99.2494 56° Northeast 544 626 41,000  Level Denver Center
Wed 06:57:26 PM 42.2536 -99.1161 55° Northeast 543 625 41,000  Level Minneapolis Center
Wed 06:58:28 PM 42.3375 -98.9489 56° Northeast 537 618 41,000  Level Minneapolis Center
Wed 06:59:30 PM 42.4008 -98.7625 65° Northeast 544 626 41,000  Level Minneapolis Center
Wed 07:00:32 PM 42.4536 -98.5694 70° East 545 627 41,000  Level Minneapolis Center
Wed 07:01:34 PM 42.5167 -98.3358 70° East 549 632 41,000  Level Minneapolis Center
Wed 07:02:36 PM 42.5697 -98.1425 70° East 546 628 41,000  Level Minneapolis Center
Wed 07:03:38 PM 42.6206 -97.9475 70° East 547 629 41,000  Level Minneapolis Center
Wed 07:04:40 PM 42.6689 -97.7639 70° East 546 628 41,000  Level Minneapolis Center
Wed 07:05:42 PM 42.7303 -97.5308 70° East 548 631 41,000  Level Minneapolis Center
Wed 07:06:44 PM 42.7808 -97.3350 71° East 550 633 41,000  Level Minneapolis Center
Wed 07:07:46 PM 42.8319 -97.1389 70° East 552 635 41,000  Level Minneapolis Center
Wed 07:08:49 PM 42.8825 -96.9406 71° East 555 639 41,000  Level Minneapolis Center
Wed 07:09:51 PM 42.9317 -96.7444 71° East 552 635 41,000  Level Minneapolis Center
Wed 07:10:53 PM 42.9817 -96.5456 71° East 555 639 41,000  Level Minneapolis Center
Wed 07:11:55 PM 43.0411 -96.3100 71° East 551 634 41,000  Level Minneapolis Center
Wed 07:12:57 PM 43.0886 -96.1133 72° East 551 634 41,000  Level Minneapolis Center
Wed 07:13:59 PM 43.1372 -95.9156 71° East 552 635 41,000  Level Minneapolis Center
Wed 07:15:01 PM 43.1861 -95.7192 71° East 551 634 41,000 -145 Level Minneapolis Center
Wed 07:16:03 PM 43.2322 -95.5203 72° East 551 634 40,700 -774 Descending Minneapolis Center
Wed 07:17:05 PM 43.2894 -95.2825 72° East 552 635 39,400 -1,210 Descending Minneapolis Center
Wed 07:18:07 PM 43.3375 -95.0822 72° East 553 636 38,200 -1,548 Descending Minneapolis Center
Wed 07:19:09 PM 43.3844 -94.8783 72° East 560 644 36,200 -1,935 Descending Minneapolis Center
Wed 07:20:11 PM 43.4303 -94.6783 72° East 554 638 34,200 -2,081 Descending Minneapolis Center
Wed 07:21:13 PM 43.4531 -94.4722 81° East 553 636 31,900 -2,710 Descending Minneapolis Center
Wed 07:22:15 PM 43.4447 -94.2408 93° East 555 639 28,600 -3,048 Descending Minneapolis Center
Wed 07:23:17 PM 43.4372 -94.0317 93° East 553 636 25,600 -2,208 Descending Minneapolis Center
Wed 07:24:20 PM 43.4514 -93.8381 84° East 518 596 24,000 -768 Descending Minneapolis Center
Wed 07:25:22 PM 43.5217 -93.6283 65° Northeast 507 583 24,000 -726 Level Minneapolis Center
Wed 07:26:24 PM 43.5800 -93.4636 64° Northeast 507 583 22,500 -1,790 Descending Minneapolis Center
Wed 07:27:26 PM 43.6392 -93.2933 64° Northeast 498 573 20,300 -2,081 Descending Minneapolis Center
Wed 07:28:28 PM 43.6972 -93.1228 65° Northeast 477 549 18,200 -2,081 Descending Minneapolis Center
Wed 07:29:30 PM 43.7633 -92.9758 58° Northeast 460 529 16,000 -2,419 Descending Minneapolis Center
Wed 07:30:32 PM 43.8567 -92.8692 39° Northeast 387 445 13,200 -2,468 Descending Minneapolis Center
Wed 07:31:34 PM 43.9306 -92.8186 26° Northeast 312 359 10,900 -2,468 Descending Minneapolis Center
Wed 07:32:36 PM 44.0042 -92.8047 North 238 274 8,100 -2,371 Descending Minneapolis Center
Wed 07:33:38 PM 44.0511 -92.7550 37° Northeast 223 257 6,000 -1,839 Descending Minneapolis Center
Wed 07:34:40 PM 44.0272 -92.6761 113° Southeast 203 234 4,300 -1,306 Descending Minneapolis Center
Wed 07:35:42 PM 43.9917 -92.6222 133° Southeast 195 224 3,300 -919 Descending Minneapolis Center
Wed 07:36:44 PM 43.9572 -92.5694 132° Southeast 177 204 2,400 -768 Descending Minneapolis Center
Wed 07:37:47 PM 43.9344 -92.5344 132° Southeast 130 150 1,700 -528 Descending Minneapolis Center
Wed 07:38:49 PM 43.9114 -92.5000 133° Southeast 122 140 1,300 -387 Descending Minneapolis Center
Wed 07:40:00 PM 43.9083 -92.5000 134° Southeast  Level Estimated

Login

Don't have an account? Register now (free) for customized features, flight alerts, and more!